sensor_id;sensor_type;location;lat;lon;timestamp;P1;durP1;ratioP1;P2;durP2;ratioP2
18100;SDS011;9177;49.156;8.142;2023-12-29T00:01:11;2.43;;;2.23;;
18100;SDS011;9177;49.156;8.142;2023-12-29T00:03:38;2.30;;;2.10;;
18100;SDS011;9177;49.156;8.142;2023-12-29T00:06:05;2.07;;;1.90;;
18100;SDS011;9177;49.156;8.142;2023-12-29T00:08:32;2.20;;;2.00;;
18100;SDS011;9177;49.156;8.142;2023-12-29T00:10:59;2.17;;;1.97;;
18100;SDS011;9177;49.156;8.142;2023-12-29T00:13:26;2.37;;;2.17;;
18100;SDS011;9177;49.156;8.142;2023-12-29T00:15:55;2.03;;;1.87;;
18100;SDS011;9177;49.156;8.142;2023-12-29T00:18:21;2.20;;;2.00;;
18100;SDS011;9177;49.156;8.142;2023-12-29T00:20:49;2.20;;;2.00;;
18100;SDS011;9177;49.156;8.142;2023-12-29T00:23:16;2.37;;;1.90;;
18100;SDS011;9177;49.156;8.142;2023-12-29T00:25:43;2.07;;;1.87;;
18100;SDS011;9177;49.156;8.142;2023-12-29T00:28:10;2.07;;;1.97;;
18100;SDS011;9177;49.156;8.142;2023-12-29T00:30:38;2.07;;;1.87;;
18100;SDS011;9177;49.156;8.142;2023-12-29T00:33:07;2.10;;;1.90;;
18100;SDS011;9177;49.156;8.142;2023-12-29T00:35:36;2.20;;;2.00;;
18100;SDS011;9177;49.156;8.142;2023-12-29T00:38:04;2.50;;;2.30;;
18100;SDS011;9177;49.156;8.142;2023-12-29T00:40:31;2.17;;;1.97;;
18100;SDS011;9177;49.156;8.142;2023-12-29T00:42:58;2.23;;;2.03;;
18100;SDS011;9177;49.156;8.142;2023-12-29T00:45:25;1.97;;;1.77;;
18100;SDS011;9177;49.156;8.142;2023-12-29T00:47:54;2.33;;;2.13;;
18100;SDS011;9177;49.156;8.142;2023-12-29T00:50:22;2.30;;;2.17;;
18100;SDS011;9177;49.156;8.142;2023-12-29T00:52:49;2.00;;;1.70;;
18100;SDS011;9177;49.156;8.142;2023-12-29T00:55:16;2.07;;;1.90;;
18100;SDS011;9177;49.156;8.142;2023-12-29T00:57:43;2.40;;;2.20;;
18100;SDS011;9177;49.156;8.142;2023-12-29T01:00:11;2.70;;;1.80;;
18100;SDS011;9177;49.156;8.142;2023-12-29T01:02:38;2.13;;;2.00;;
18100;SDS011;9177;49.156;8.142;2023-12-29T01:05:06;2.30;;;2.00;;
18100;SDS011;9177;49.156;8.142;2023-12-29T01:07:34;2.03;;;1.93;;
18100;SDS011;9177;49.156;8.142;2023-12-29T01:10:01;2.07;;;1.77;;
18100;SDS011;9177;49.156;8.142;2023-12-29T01:12:28;2.00;;;1.90;;
18100;SDS011;9177;49.156;8.142;2023-12-29T01:14:55;1.67;;;1.57;;
18100;SDS011;9177;49.156;8.142;2023-12-29T01:17:22;2.20;;;2.00;;
18100;SDS011;9177;49.156;8.142;2023-12-29T01:19:48;2.00;;;1.90;;
18100;SDS011;9177;49.156;8.142;2023-12-29T01:22:18;1.80;;;1.70;;
18100;SDS011;9177;49.156;8.142;2023-12-29T01:24:46;1.70;;;1.60;;
18100;SDS011;9177;49.156;8.142;2023-12-29T01:27:13;2.00;;;1.80;;
18100;SDS011;9177;49.156;8.142;2023-12-29T01:29:40;2.13;;;1.93;;
18100;SDS011;9177;49.156;8.142;2023-12-29T01:32:07;1.80;;;1.70;;
18100;SDS011;9177;49.156;8.142;2023-12-29T01:34:35;1.93;;;1.83;;
18100;SDS011;9177;49.156;8.142;2023-12-29T01:37:02;1.63;;;1.53;;
18100;SDS011;9177;49.156;8.142;2023-12-29T01:39:29;2.03;;;1.90;;
18100;SDS011;9177;49.156;8.142;2023-12-29T01:41:57;1.80;;;1.70;;
18100;SDS011;9177;49.156;8.142;2023-12-29T01:44:24;1.93;;;1.83;;
18100;SDS011;9177;49.156;8.142;2023-12-29T01:46:53;2.50;;;1.80;;
18100;SDS011;9177;49.156;8.142;2023-12-29T01:49:22;2.00;;;1.77;;
18100;SDS011;9177;49.156;8.142;2023-12-29T01:51:50;2.10;;;1.97;;
18100;SDS011;9177;49.156;8.142;2023-12-29T01:54:19;2.07;;;1.87;;
18100;SDS011;9177;49.156;8.142;2023-12-29T01:56:47;1.90;;;1.80;;
18100;SDS011;9177;49.156;8.142;2023-12-29T01:59:17;1.70;;;1.60;;
18100;SDS011;9177;49.156;8.142;2023-12-29T02:01:45;2.03;;;1.83;;
18100;SDS011;9177;49.156;8.142;2023-12-29T02:04:12;1.80;;;1.70;;
18100;SDS011;9177;49.156;8.142;2023-12-29T02:06:40;2.03;;;1.80;;
18100;SDS011;9177;49.156;8.142;2023-12-29T02:09:07;2.23;;;1.70;;
18100;SDS011;9177;49.156;8.142;2023-12-29T02:11:34;1.90;;;1.80;;
18100;SDS011;9177;49.156;8.142;2023-12-29T02:14:01;1.80;;;1.70;;
18100;SDS011;9177;49.156;8.142;2023-12-29T02:16:33;1.90;;;1.67;;
18100;SDS011;9177;49.156;8.142;2023-12-29T02:19:08;1.93;;;1.80;;
18100;SDS011;9177;49.156;8.142;2023-12-29T02:21:51;2.13;;;1.93;;
18100;SDS011;9177;49.156;8.142;2023-12-29T02:24:17;1.80;;;1.70;;
18100;SDS011;9177;49.156;8.142;2023-12-29T02:26:47;1.47;;;1.37;;
18100;SDS011;9177;49.156;8.142;2023-12-29T02:29:19;1.77;;;1.63;;
18100;SDS011;9177;49.156;8.142;2023-12-29T02:31:50;2.10;;;1.90;;
18100;SDS011;9177;49.156;8.142;2023-12-29T02:34:20;1.53;;;1.43;;
18100;SDS011;9177;49.156;8.142;2023-12-29T02:36:49;1.90;;;1.70;;
18100;SDS011;9177;49.156;8.142;2023-12-29T02:39:17;2.80;;;1.80;;
18100;SDS011;9177;49.156;8.142;2023-12-29T02:41:46;1.70;;;1.50;;
18100;SDS011;9177;49.156;8.142;2023-12-29T02:44:13;1.93;;;1.83;;
18100;SDS011;9177;49.156;8.142;2023-12-29T02:46:39;1.70;;;1.60;;
18100;SDS011;9177;49.156;8.142;2023-12-29T02:49:07;1.70;;;1.60;;
18100;SDS011;9177;49.156;8.142;2023-12-29T02:51:37;1.70;;;1.60;;
18100;SDS011;9177;49.156;8.142;2023-12-29T02:54:04;1.67;;;1.40;;
18100;SDS011;9177;49.156;8.142;2023-12-29T02:56:32;1.70;;;1.60;;
18100;SDS011;9177;49.156;8.142;2023-12-29T02:59:00;1.80;;;1.70;;
18100;SDS011;9177;49.156;8.142;2023-12-29T03:01:27;2.07;;;1.87;;
18100;SDS011;9177;49.156;8.142;2023-12-29T03:04:00;2.20;;;1.40;;
18100;SDS011;9177;49.156;8.142;2023-12-29T03:06:27;1.70;;;1.60;;
18100;SDS011;9177;49.156;8.142;2023-12-29T03:08:53;1.73;;;1.63;;
18100;SDS011;9177;49.156;8.142;2023-12-29T03:11:20;1.50;;;1.40;;
18100;SDS011;9177;49.156;8.142;2023-12-29T03:13:47;1.80;;;1.70;;
18100;SDS011;9177;49.156;8.142;2023-12-29T03:16:15;1.90;;;1.60;;
18100;SDS011;9177;49.156;8.142;2023-12-29T03:18:42;2.03;;;1.90;;
18100;SDS011;9177;49.156;8.142;2023-12-29T03:21:09;1.67;;;1.57;;
18100;SDS011;9177;49.156;8.142;2023-12-29T03:23:36;1.93;;;1.70;;
18100;SDS011;9177;49.156;8.142;2023-12-29T03:26:03;1.70;;;1.60;;
18100;SDS011;9177;49.156;8.142;2023-12-29T03:28:30;1.90;;;1.70;;
18100;SDS011;9177;49.156;8.142;2023-12-29T03:30:57;1.60;;;1.50;;
18100;SDS011;9177;49.156;8.142;2023-12-29T03:33:25;1.80;;;1.70;;
18100;SDS011;9177;49.156;8.142;2023-12-29T03:35:52;2.40;;;1.83;;
18100;SDS011;9177;49.156;8.142;2023-12-29T03:38:19;1.67;;;1.57;;
18100;SDS011;9177;49.156;8.142;2023-12-29T03:40:45;1.73;;;1.63;;
18100;SDS011;9177;49.156;8.142;2023-12-29T03:43:12;1.60;;;1.50;;
18100;SDS011;9177;49.156;8.142;2023-12-29T03:45:39;1.60;;;1.50;;
18100;SDS011;9177;49.156;8.142;2023-12-29T03:48:06;1.43;;;1.33;;
18100;SDS011;9177;49.156;8.142;2023-12-29T03:50:35;1.40;;;1.30;;
18100;SDS011;9177;49.156;8.142;2023-12-29T03:53:02;1.70;;;1.37;;
18100;SDS011;9177;49.156;8.142;2023-12-29T03:55:29;1.60;;;1.50;;
18100;SDS011;9177;49.156;8.142;2023-12-29T03:57:56;1.50;;;1.40;;
18100;SDS011;9177;49.156;8.142;2023-12-29T04:00:23;1.97;;;1.70;;
18100;SDS011;9177;49.156;8.142;2023-12-29T04:02:50;2.60;;;1.50;;
18100;SDS011;9177;49.156;8.142;2023-12-29T04:05:17;2.63;;;1.67;;
18100;SDS011;9177;49.156;8.142;2023-12-29T04:07:45;1.93;;;1.33;;
18100;SDS011;9177;49.156;8.142;2023-12-29T04:10:12;2.87;;;1.40;;
18100;SDS011;9177;49.156;8.142;2023-12-29T04:12:39;1.53;;;1.37;;
18100;SDS011;9177;49.156;8.142;2023-12-29T04:15:06;1.50;;;1.40;;
18100;SDS011;9177;49.156;8.142;2023-12-29T04:17:34;1.63;;;1.53;;
18100;SDS011;9177;49.156;8.142;2023-12-29T04:20:01;1.57;;;1.33;;
18100;SDS011;9177;49.156;8.142;2023-12-29T04:22:28;1.33;;;1.23;;
18100;SDS011;9177;49.156;8.142;2023-12-29T04:25:00;1.50;;;1.40;;
18100;SDS011;9177;49.156;8.142;2023-12-29T04:27:27;1.30;;;1.20;;
18100;SDS011;9177;49.156;8.142;2023-12-29T04:29:53;1.50;;;1.30;;
18100;SDS011;9177;49.156;8.142;2023-12-29T04:32:20;1.40;;;1.30;;
18100;SDS011;9177;49.156;8.142;2023-12-29T04:34:47;1.40;;;1.20;;
18100;SDS011;9177;49.156;8.142;2023-12-29T04:37:14;1.40;;;1.30;;
18100;SDS011;9177;49.156;8.142;2023-12-29T04:39:41;1.43;;;1.33;;
18100;SDS011;9177;49.156;8.142;2023-12-29T04:42:09;1.27;;;1.17;;
18100;SDS011;9177;49.156;8.142;2023-12-29T04:44:36;1.43;;;1.30;;
18100;SDS011;9177;49.156;8.142;2023-12-29T04:47:03;1.47;;;1.00;;
18100;SDS011;9177;49.156;8.142;2023-12-29T04:49:30;1.17;;;1.07;;
18100;SDS011;9177;49.156;8.142;2023-12-29T04:51:57;1.30;;;1.20;;
18100;SDS011;9177;49.156;8.142;2023-12-29T04:54:24;1.30;;;1.20;;
18100;SDS011;9177;49.156;8.142;2023-12-29T04:56:51;0.97;;;0.97;;
18100;SDS011;9177;49.156;8.142;2023-12-29T04:59:19;1.27;;;1.17;;
18100;SDS011;9177;49.156;8.142;2023-12-29T05:01:46;1.40;;;1.17;;
18100;SDS011;9177;49.156;8.142;2023-12-29T05:04:13;1.07;;;1.00;;
18100;SDS011;9177;49.156;8.142;2023-12-29T05:06:41;1.30;;;1.20;;
18100;SDS011;9177;49.156;8.142;2023-12-29T05:09:08;1.53;;;1.37;;
18100;SDS011;9177;49.156;8.142;2023-12-29T05:11:35;1.23;;;1.03;;
18100;SDS011;9177;49.156;8.142;2023-12-29T05:14:02;1.70;;;1.00;;
18100;SDS011;9177;49.156;8.142;2023-12-29T05:16:29;1.10;;;1.00;;
18100;SDS011;9177;49.156;8.142;2023-12-29T05:18:56;1.07;;;0.97;;
18100;SDS011;9177;49.156;8.142;2023-12-29T05:21:23;1.43;;;1.10;;
18100;SDS011;9177;49.156;8.142;2023-12-29T05:23:51;1.50;;;1.00;;
18100;SDS011;9177;49.156;8.142;2023-12-29T05:26:18;1.03;;;0.90;;
18100;SDS011;9177;49.156;8.142;2023-12-29T05:28:45;1.13;;;1.03;;
18100;SDS011;9177;49.156;8.142;2023-12-29T05:31:12;1.00;;;0.90;;
18100;SDS011;9177;49.156;8.142;2023-12-29T05:33:40;1.07;;;0.97;;
18100;SDS011;9177;49.156;8.142;2023-12-29T05:36:07;0.77;;;0.77;;
18100;SDS011;9177;49.156;8.142;2023-12-29T05:38:36;1.27;;;1.03;;
18100;SDS011;9177;49.156;8.142;2023-12-29T05:41:05;1.17;;;1.07;;
18100;SDS011;9177;49.156;8.142;2023-12-29T05:43:32;1.00;;;0.97;;
18100;SDS011;9177;49.156;8.142;2023-12-29T05:45:59;1.10;;;0.97;;
18100;SDS011;9177;49.156;8.142;2023-12-29T05:48:27;1.20;;;1.10;;
18100;SDS011;9177;49.156;8.142;2023-12-29T05:50:55;1.10;;;1.00;;
18100;SDS011;9177;49.156;8.142;2023-12-29T05:53:22;0.90;;;0.80;;
18100;SDS011;9177;49.156;8.142;2023-12-29T05:55:49;0.97;;;0.90;;
18100;SDS011;9177;49.156;8.142;2023-12-29T05:58:15;0.80;;;0.80;;
18100;SDS011;9177;49.156;8.142;2023-12-29T06:00:42;1.10;;;0.83;;
18100;SDS011;9177;49.156;8.142;2023-12-29T06:03:10;1.10;;;1.00;;
18100;SDS011;9177;49.156;8.142;2023-12-29T06:05:38;1.00;;;1.00;;
18100;SDS011;9177;49.156;8.142;2023-12-29T06:08:06;0.90;;;0.90;;
18100;SDS011;9177;49.156;8.142;2023-12-29T06:10:33;1.20;;;1.00;;
18100;SDS011;9177;49.156;8.142;2023-12-29T06:13:02;1.03;;;0.93;;
18100;SDS011;9177;49.156;8.142;2023-12-29T06:15:29;0.87;;;0.87;;
18100;SDS011;9177;49.156;8.142;2023-12-29T06:17:56;1.17;;;1.07;;
18100;SDS011;9177;49.156;8.142;2023-12-29T06:20:23;1.07;;;0.90;;
18100;SDS011;9177;49.156;8.142;2023-12-29T06:22:50;1.87;;;1.07;;
18100;SDS011;9177;49.156;8.142;2023-12-29T06:25:19;1.10;;;1.00;;
18100;SDS011;9177;49.156;8.142;2023-12-29T06:27:46;1.73;;;0.93;;
18100;SDS011;9177;49.156;8.142;2023-12-29T06:30:13;0.80;;;0.80;;
18100;SDS011;9177;49.156;8.142;2023-12-29T06:32:40;1.20;;;1.00;;
18100;SDS011;9177;49.156;8.142;2023-12-29T06:35:07;1.10;;;1.00;;
18100;SDS011;9177;49.156;8.142;2023-12-29T06:37:35;0.90;;;0.90;;
18100;SDS011;9177;49.156;8.142;2023-12-29T06:40:03;0.87;;;0.87;;
18100;SDS011;9177;49.156;8.142;2023-12-29T06:42:32;1.03;;;0.90;;
18100;SDS011;9177;49.156;8.142;2023-12-29T06:44:59;1.00;;;0.90;;
18100;SDS011;9177;49.156;8.142;2023-12-29T06:47:26;0.87;;;0.87;;
18100;SDS011;9177;49.156;8.142;2023-12-29T06:49:53;0.70;;;0.70;;
18100;SDS011;9177;49.156;8.142;2023-12-29T06:52:20;0.80;;;0.80;;
18100;SDS011;9177;49.156;8.142;2023-12-29T06:54:47;0.80;;;0.80;;
18100;SDS011;9177;49.156;8.142;2023-12-29T06:57:17;0.80;;;0.80;;
18100;SDS011;9177;49.156;8.142;2023-12-29T06:59:45;0.90;;;0.90;;
18100;SDS011;9177;49.156;8.142;2023-12-29T07:02:12;0.80;;;0.80;;
18100;SDS011;9177;49.156;8.142;2023-12-29T07:04:41;0.73;;;0.73;;
18100;SDS011;9177;49.156;8.142;2023-12-29T07:07:08;1.13;;;1.03;;
18100;SDS011;9177;49.156;8.142;2023-12-29T07:09:37;0.80;;;0.77;;
18100;SDS011;9177;49.156;8.142;2023-12-29T07:12:05;0.80;;;0.80;;
18100;SDS011;9177;49.156;8.142;2023-12-29T07:14:33;0.83;;;0.80;;
18100;SDS011;9177;49.156;8.142;2023-12-29T07:17:02;0.80;;;0.80;;
18100;SDS011;9177;49.156;8.142;2023-12-29T07:19:29;0.80;;;0.80;;
18100;SDS011;9177;49.156;8.142;2023-12-29T07:22:01;0.70;;;0.70;;
18100;SDS011;9177;49.156;8.142;2023-12-29T07:24:29;0.80;;;0.80;;
18100;SDS011;9177;49.156;8.142;2023-12-29T07:26:57;1.00;;;0.83;;
18100;SDS011;9177;49.156;8.142;2023-12-29T07:29:24;0.73;;;0.73;;
18100;SDS011;9177;49.156;8.142;2023-12-29T07:31:51;1.00;;;0.90;;
18100;SDS011;9177;49.156;8.142;2023-12-29T07:34:19;0.80;;;0.80;;
18100;SDS011;9177;49.156;8.142;2023-12-29T07:36:46;0.80;;;0.80;;
18100;SDS011;9177;49.156;8.142;2023-12-29T07:39:13;0.70;;;0.70;;
18100;SDS011;9177;49.156;8.142;2023-12-29T07:41:40;0.90;;;0.70;;
18100;SDS011;9177;49.156;8.142;2023-12-29T07:44:07;1.00;;;0.90;;
18100;SDS011;9177;49.156;8.142;2023-12-29T07:46:36;0.80;;;0.73;;
18100;SDS011;9177;49.156;8.142;2023-12-29T07:49:03;1.03;;;0.70;;
18100;SDS011;9177;49.156;8.142;2023-12-29T07:51:32;0.73;;;0.73;;
18100;SDS011;9177;49.156;8.142;2023-12-29T07:53:59;0.90;;;0.70;;
18100;SDS011;9177;49.156;8.142;2023-12-29T07:56:25;0.67;;;0.67;;
18100;SDS011;9177;49.156;8.142;2023-12-29T07:58:53;1.37;;;0.80;;
18100;SDS011;9177;49.156;8.142;2023-12-29T08:01:19;0.70;;;0.70;;
18100;SDS011;9177;49.156;8.142;2023-12-29T08:03:46;0.70;;;0.60;;
18100;SDS011;9177;49.156;8.142;2023-12-29T08:06:13;0.93;;;0.80;;
18100;SDS011;9177;49.156;8.142;2023-12-29T08:08:42;0.73;;;0.73;;
18100;SDS011;9177;49.156;8.142;2023-12-29T08:11:12;0.70;;;0.70;;
18100;SDS011;9177;49.156;8.142;2023-12-29T08:13:40;1.00;;;0.90;;
18100;SDS011;9177;49.156;8.142;2023-12-29T08:16:07;0.70;;;0.63;;
18100;SDS011;9177;49.156;8.142;2023-12-29T08:18:34;0.80;;;0.60;;
18100;SDS011;9177;49.156;8.142;2023-12-29T08:21:01;0.80;;;0.80;;
18100;SDS011;9177;49.156;8.142;2023-12-29T08:23:28;1.27;;;0.80;;
18100;SDS011;9177;49.156;8.142;2023-12-29T08:25:57;0.60;;;0.60;;
18100;SDS011;9177;49.156;8.142;2023-12-29T08:28:24;0.60;;;0.60;;
18100;SDS011;9177;49.156;8.142;2023-12-29T08:30:51;1.07;;;0.97;;
18100;SDS011;9177;49.156;8.142;2023-12-29T08:33:18;0.87;;;0.60;;
18100;SDS011;9177;49.156;8.142;2023-12-29T08:35:45;0.90;;;0.90;;
18100;SDS011;9177;49.156;8.142;2023-12-29T08:38:12;0.70;;;0.70;;
18100;SDS011;9177;49.156;8.142;2023-12-29T08:40:39;0.60;;;0.60;;
18100;SDS011;9177;49.156;8.142;2023-12-29T08:43:08;0.80;;;0.80;;
18100;SDS011;9177;49.156;8.142;2023-12-29T08:45:35;0.87;;;0.60;;
18100;SDS011;9177;49.156;8.142;2023-12-29T08:48:03;0.67;;;0.67;;
18100;SDS011;9177;49.156;8.142;2023-12-29T08:50:30;0.50;;;0.50;;
18100;SDS011;9177;49.156;8.142;2023-12-29T08:52:57;0.80;;;0.80;;
18100;SDS011;9177;49.156;8.142;2023-12-29T08:55:24;1.30;;;0.70;;
18100;SDS011;9177;49.156;8.142;2023-12-29T08:57:51;0.80;;;0.80;;
18100;SDS011;9177;49.156;8.142;2023-12-29T09:00:19;0.80;;;0.70;;
18100;SDS011;9177;49.156;8.142;2023-12-29T09:02:46;0.67;;;0.67;;
18100;SDS011;9177;49.156;8.142;2023-12-29T09:05:13;0.70;;;0.60;;
18100;SDS011;9177;49.156;8.142;2023-12-29T09:07:41;0.70;;;0.70;;
18100;SDS011;9177;49.156;8.142;2023-12-29T09:10:07;0.70;;;0.70;;
18100;SDS011;9177;49.156;8.142;2023-12-29T09:12:36;1.10;;;0.97;;
18100;SDS011;9177;49.156;8.142;2023-12-29T09:15:04;0.60;;;0.60;;
18100;SDS011;9177;49.156;8.142;2023-12-29T09:17:33;0.50;;;0.50;;
18100;SDS011;9177;49.156;8.142;2023-12-29T09:19:59;1.60;;;0.80;;
18100;SDS011;9177;49.156;8.142;2023-12-29T09:22:27;0.50;;;0.50;;
18100;SDS011;9177;49.156;8.142;2023-12-29T09:24:53;0.80;;;0.70;;
18100;SDS011;9177;49.156;8.142;2023-12-29T09:27:20;0.77;;;0.60;;
18100;SDS011;9177;49.156;8.142;2023-12-29T09:29:48;0.60;;;0.60;;
18100;SDS011;9177;49.156;8.142;2023-12-29T09:32:15;0.80;;;0.70;;
18100;SDS011;9177;49.156;8.142;2023-12-29T09:34:44;0.50;;;0.50;;
18100;SDS011;9177;49.156;8.142;2023-12-29T09:37:11;0.83;;;0.80;;
18100;SDS011;9177;49.156;8.142;2023-12-29T09:39:37;0.80;;;0.70;;
18100;SDS011;9177;49.156;8.142;2023-12-29T09:42:04;0.77;;;0.67;;
18100;SDS011;9177;49.156;8.142;2023-12-29T09:44:33;0.93;;;0.80;;
18100;SDS011;9177;49.156;8.142;2023-12-29T09:47:02;1.20;;;0.70;;
18100;SDS011;9177;49.156;8.142;2023-12-29T09:49:31;0.50;;;0.50;;
18100;SDS011;9177;49.156;8.142;2023-12-29T09:52:05;0.80;;;0.60;;
18100;SDS011;9177;49.156;8.142;2023-12-29T09:54:35;0.60;;;0.60;;
18100;SDS011;9177;49.156;8.142;2023-12-29T09:57:03;0.50;;;0.50;;
18100;SDS011;9177;49.156;8.142;2023-12-29T09:59:32;1.53;;;0.73;;
18100;SDS011;9177;49.156;8.142;2023-12-29T10:02:00;2.17;;;0.70;;
18100;SDS011;9177;49.156;8.142;2023-12-29T10:04:29;0.60;;;0.60;;
18100;SDS011;9177;49.156;8.142;2023-12-29T10:06:56;0.70;;;0.70;;
18100;SDS011;9177;49.156;8.142;2023-12-29T10:09:30;0.73;;;0.73;;
18100;SDS011;9177;49.156;8.142;2023-12-29T10:11:59;0.70;;;0.67;;
18100;SDS011;9177;49.156;8.142;2023-12-29T10:14:30;0.50;;;0.50;;
18100;SDS011;9177;49.156;8.142;2023-12-29T10:17:06;0.57;;;0.57;;
18100;SDS011;9177;49.156;8.142;2023-12-29T10:19:39;0.80;;;0.80;;
18100;SDS011;9177;49.156;8.142;2023-12-29T10:22:08;2.57;;;0.77;;
18100;SDS011;9177;49.156;8.142;2023-12-29T10:24:42;0.63;;;0.63;;
18100;SDS011;9177;49.156;8.142;2023-12-29T10:27:11;0.93;;;0.57;;
18100;SDS011;9177;49.156;8.142;2023-12-29T10:29:38;0.80;;;0.70;;
18100;SDS011;9177;49.156;8.142;2023-12-29T10:32:05;1.27;;;0.73;;
18100;SDS011;9177;49.156;8.142;2023-12-29T10:34:32;1.70;;;0.63;;
18100;SDS011;9177;49.156;8.142;2023-12-29T10:36:59;0.90;;;0.80;;
18100;SDS011;9177;49.156;8.142;2023-12-29T10:39:28;0.70;;;0.70;;
18100;SDS011;9177;49.156;8.142;2023-12-29T10:42:06;0.83;;;0.70;;
18100;SDS011;9177;49.156;8.142;2023-12-29T10:44:34;0.97;;;0.60;;
18100;SDS011;9177;49.156;8.142;2023-12-29T10:47:11;1.23;;;0.70;;
18100;SDS011;9177;49.156;8.142;2023-12-29T10:49:39;1.03;;;0.70;;
18100;SDS011;9177;49.156;8.142;2023-12-29T10:52:11;0.50;;;0.50;;
18100;SDS011;9177;49.156;8.142;2023-12-29T10:54:39;1.93;;;0.60;;
18100;SDS011;9177;49.156;8.142;2023-12-29T10:57:08;0.77;;;0.70;;
18100;SDS011;9177;49.156;8.142;2023-12-29T10:59:37;0.50;;;0.50;;
18100;SDS011;9177;49.156;8.142;2023-12-29T11:02:04;0.47;;;0.47;;
18100;SDS011;9177;49.156;8.142;2023-12-29T11:04:33;0.60;;;0.60;;
18100;SDS011;9177;49.156;8.142;2023-12-29T11:07:02;0.87;;;0.70;;
18100;SDS011;9177;49.156;8.142;2023-12-29T11:09:30;0.50;;;0.50;;
18100;SDS011;9177;49.156;8.142;2023-12-29T11:11:59;0.90;;;0.70;;
18100;SDS011;9177;49.156;8.142;2023-12-29T11:14:29;0.50;;;0.40;;
18100;SDS011;9177;49.156;8.142;2023-12-29T11:16:57;0.60;;;0.60;;
18100;SDS011;9177;49.156;8.142;2023-12-29T11:19:25;1.80;;;0.50;;
18100;SDS011;9177;49.156;8.142;2023-12-29T11:21:53;0.60;;;0.60;;
18100;SDS011;9177;49.156;8.142;2023-12-29T11:24:21;1.90;;;0.50;;
18100;SDS011;9177;49.156;8.142;2023-12-29T11:26:48;0.73;;;0.60;;
18100;SDS011;9177;49.156;8.142;2023-12-29T11:29:16;0.60;;;0.60;;
18100;SDS011;9177;49.156;8.142;2023-12-29T11:31:45;1.90;;;0.50;;
18100;SDS011;9177;49.156;8.142;2023-12-29T11:34:16;0.90;;;0.60;;
18100;SDS011;9177;49.156;8.142;2023-12-29T11:36:47;0.63;;;0.63;;
18100;SDS011;9177;49.156;8.142;2023-12-29T11:39:17;1.07;;;0.60;;
18100;SDS011;9177;49.156;8.142;2023-12-29T11:41:56;0.60;;;0.60;;
18100;SDS011;9177;49.156;8.142;2023-12-29T11:44:30;1.73;;;0.90;;
18100;SDS011;9177;49.156;8.142;2023-12-29T11:46:59;0.50;;;0.47;;
18100;SDS011;9177;49.156;8.142;2023-12-29T11:49:27;0.60;;;0.50;;
18100;SDS011;9177;49.156;8.142;2023-12-29T11:52:33;0.60;;;0.60;;
18100;SDS011;9177;49.156;8.142;2023-12-29T11:55:07;0.50;;;0.50;;
18100;SDS011;9177;49.156;8.142;2023-12-29T11:57:34;0.57;;;0.40;;
18100;SDS011;9177;49.156;8.142;2023-12-29T12:00:02;0.60;;;0.50;;
18100;SDS011;9177;49.156;8.142;2023-12-29T12:02:32;1.17;;;0.60;;
18100;SDS011;9177;49.156;8.142;2023-12-29T12:04:59;0.57;;;0.57;;
18100;SDS011;9177;49.156;8.142;2023-12-29T12:10:29;0.60;;;0.47;;
18100;SDS011;9177;49.156;8.142;2023-12-29T12:12:59;0.50;;;0.50;;
18100;SDS011;9177;49.156;8.142;2023-12-29T12:15:32;0.63;;;0.57;;
18100;SDS011;9177;49.156;8.142;2023-12-29T12:18:01;0.60;;;0.60;;
18100;SDS011;9177;49.156;8.142;2023-12-29T12:20:32;0.77;;;0.60;;
18100;SDS011;9177;49.156;8.142;2023-12-29T12:23:00;0.47;;;0.47;;
18100;SDS011;9177;49.156;8.142;2023-12-29T12:25:28;0.80;;;0.60;;
18100;SDS011;9177;49.156;8.142;2023-12-29T12:28:00;0.60;;;0.60;;
18100;SDS011;9177;49.156;8.142;2023-12-29T12:30:31;0.60;;;0.60;;
18100;SDS011;9177;49.156;8.142;2023-12-29T12:33:01;0.60;;;0.60;;
18100;SDS011;9177;49.156;8.142;2023-12-29T12:35:29;0.70;;;0.60;;
18100;SDS011;9177;49.156;8.142;2023-12-29T12:38:09;0.77;;;0.63;;
18100;SDS011;9177;49.156;8.142;2023-12-29T12:40:36;0.50;;;0.50;;
18100;SDS011;9177;49.156;8.142;2023-12-29T12:43:03;0.60;;;0.60;;
18100;SDS011;9177;49.156;8.142;2023-12-29T12:45:33;0.80;;;0.60;;
18100;SDS011;9177;49.156;8.142;2023-12-29T12:48:03;1.50;;;0.67;;
18100;SDS011;9177;49.156;8.142;2023-12-29T12:50:41;0.70;;;0.53;;
18100;SDS011;9177;49.156;8.142;2023-12-29T12:53:10;0.60;;;0.60;;
18100;SDS011;9177;49.156;8.142;2023-12-29T12:55:39;0.90;;;0.60;;
18100;SDS011;9177;49.156;8.142;2023-12-29T12:58:07;0.50;;;0.50;;
18100;SDS011;9177;49.156;8.142;2023-12-29T13:00:35;0.53;;;0.53;;
18100;SDS011;9177;49.156;8.142;2023-12-29T13:03:04;0.60;;;0.60;;
18100;SDS011;9177;49.156;8.142;2023-12-29T13:05:31;0.50;;;0.43;;
18100;SDS011;9177;49.156;8.142;2023-12-29T13:08:02;0.60;;;0.60;;
18100;SDS011;9177;49.156;8.142;2023-12-29T13:10:30;0.47;;;0.43;;
18100;SDS011;9177;49.156;8.142;2023-12-29T13:12:57;0.80;;;0.70;;
18100;SDS011;9177;49.156;8.142;2023-12-29T13:15:24;0.57;;;0.50;;
18100;SDS011;9177;49.156;8.142;2023-12-29T13:17:51;0.67;;;0.60;;
18100;SDS011;9177;49.156;8.142;2023-12-29T13:20:20;0.77;;;0.53;;
18100;SDS011;9177;49.156;8.142;2023-12-29T13:22:47;0.70;;;0.60;;
18100;SDS011;9177;49.156;8.142;2023-12-29T13:25:17;0.60;;;0.60;;
18100;SDS011;9177;49.156;8.142;2023-12-29T13:27:45;0.70;;;0.70;;
18100;SDS011;9177;49.156;8.142;2023-12-29T13:30:13;0.90;;;0.60;;
18100;SDS011;9177;49.156;8.142;2023-12-29T13:32:40;0.97;;;0.70;;
18100;SDS011;9177;49.156;8.142;2023-12-29T13:35:10;0.67;;;0.60;;
18100;SDS011;9177;49.156;8.142;2023-12-29T13:37:47;0.93;;;0.70;;
18100;SDS011;9177;49.156;8.142;2023-12-29T13:40:22;0.50;;;0.50;;
18100;SDS011;9177;49.156;8.142;2023-12-29T13:42:53;0.70;;;0.70;;
18100;SDS011;9177;49.156;8.142;2023-12-29T13:45:23;0.70;;;0.70;;
18100;SDS011;9177;49.156;8.142;2023-12-29T13:47:51;1.27;;;0.60;;
18100;SDS011;9177;49.156;8.142;2023-12-29T13:50:18;0.97;;;0.70;;
18100;SDS011;9177;49.156;8.142;2023-12-29T13:52:47;0.70;;;0.70;;
18100;SDS011;9177;49.156;8.142;2023-12-29T13:55:20;0.60;;;0.60;;
18100;SDS011;9177;49.156;8.142;2023-12-29T13:57:48;0.60;;;0.60;;
18100;SDS011;9177;49.156;8.142;2023-12-29T14:00:16;0.53;;;0.53;;
18100;SDS011;9177;49.156;8.142;2023-12-29T14:02:45;0.70;;;0.60;;
18100;SDS011;9177;49.156;8.142;2023-12-29T14:05:18;0.60;;;0.50;;
18100;SDS011;9177;49.156;8.142;2023-12-29T14:07:53;0.73;;;0.67;;
18100;SDS011;9177;49.156;8.142;2023-12-29T14:10:28;0.90;;;0.63;;
18100;SDS011;9177;49.156;8.142;2023-12-29T14:13:02;0.87;;;0.60;;
18100;SDS011;9177;49.156;8.142;2023-12-29T14:15:33;0.67;;;0.67;;
18100;SDS011;9177;49.156;8.142;2023-12-29T14:18:03;0.60;;;0.60;;
18100;SDS011;9177;49.156;8.142;2023-12-29T14:20:36;0.93;;;0.70;;
18100;SDS011;9177;49.156;8.142;2023-12-29T14:23:04;1.20;;;0.80;;
18100;SDS011;9177;49.156;8.142;2023-12-29T14:25:31;0.70;;;0.60;;
18100;SDS011;9177;49.156;8.142;2023-12-29T14:28:01;0.80;;;0.70;;
18100;SDS011;9177;49.156;8.142;2023-12-29T14:30:28;0.60;;;0.60;;
18100;SDS011;9177;49.156;8.142;2023-12-29T14:32:56;0.70;;;0.70;;
18100;SDS011;9177;49.156;8.142;2023-12-29T14:35:24;0.60;;;0.60;;
18100;SDS011;9177;49.156;8.142;2023-12-29T14:37:50;1.23;;;0.70;;
18100;SDS011;9177;49.156;8.142;2023-12-29T14:40:19;0.80;;;0.70;;
18100;SDS011;9177;49.156;8.142;2023-12-29T14:42:45;1.43;;;0.60;;
18100;SDS011;9177;49.156;8.142;2023-12-29T14:45:13;1.23;;;0.53;;
18100;SDS011;9177;49.156;8.142;2023-12-29T14:47:40;0.70;;;0.60;;
18100;SDS011;9177;49.156;8.142;2023-12-29T14:50:07;0.73;;;0.60;;
18100;SDS011;9177;49.156;8.142;2023-12-29T14:52:34;0.40;;;0.40;;
18100;SDS011;9177;49.156;8.142;2023-12-29T14:55:01;0.90;;;0.80;;
18100;SDS011;9177;49.156;8.142;2023-12-29T14:57:30;1.07;;;0.70;;
18100;SDS011;9177;49.156;8.142;2023-12-29T14:59:56;0.57;;;0.57;;
18100;SDS011;9177;49.156;8.142;2023-12-29T15:02:23;2.53;;;0.60;;
18100;SDS011;9177;49.156;8.142;2023-12-29T15:04:50;1.07;;;0.90;;
18100;SDS011;9177;49.156;8.142;2023-12-29T15:07:17;0.70;;;0.50;;
18100;SDS011;9177;49.156;8.142;2023-12-29T15:09:44;1.70;;;0.70;;